Time;durP1;ratioP1;P1;durP2;ratioP2;P2;SDS_P1;SDS_P2;PMS_P1;PMS_P2;Temp;Humidity;BMP_temperature;BMP_pressure;BME280_temperature;BME280_humidity;BME280_pressure;Samples;Min_cycle;Max_cycle;Signal;HPM_P1;HPM_P2
2023/09/04 00:00:02;;;;;;;4.68;2.55;;;;;;;17.00;81.47;94820.41;4994761;28;20215;-74
2023/09/04 00:02:28;;;;;;;5.38;2.20;;;;;;;16.91;84.63;94817.91;4994777;28;20202;-74
2023/09/04 00:04:56;;;;;;;6.85;2.80;;;;;;;16.79;86.31;94809.88;4994976;28;20210;-74
2023/09/04 00:07:24;;;;;;;6.53;2.60;;;;;;;16.75;90.01;94794.53;4995240;28;20637;-74
2023/09/04 00:09:51;;;;;;;5.15;2.67;;;;;;;16.74;93.05;94780.06;4994654;28;20234;-75
2023/09/04 00:12:18;;;;;;;6.57;2.30;;;;;;;16.66;95.04;94778.34;4995025;28;20592;-75
2023/09/04 00:14:45;;;;;;;3.55;2.20;;;;;;;16.59;98.27;94767.25;4994773;28;20562;-75
2023/09/04 00:17:11;;;;;;;8.93;2.47;;;;;;;16.55;100.00;94766.38;4994383;28;20241;-75
2023/09/04 00:19:38;;;;;;;3.85;2.30;;;;;;;16.57;100.00;94767.59;4994303;28;20208;-75
2023/09/04 00:22:06;;;;;;;7.30;2.17;;;;;;;16.45;100.00;94769.69;4994449;28;20219;-75
2023/09/04 00:24:34;;;;;;;4.15;2.30;;;;;;;16.32;100.00;94758.91;4995023;28;20542;-74
2023/09/04 00:27:00;;;;;;;4.80;2.67;;;;;;;16.23;100.00;94739.22;4994403;28;20634;-75
2023/09/04 00:29:27;;;;;;;3.90;2.15;;;;;;;16.40;100.00;94753.59;4994446;28;20231;-75
2023/09/04 00:31:54;;;;;;;4.45;2.42;;;;;;;16.45;100.00;94754.09;4994002;28;20217;-75
2023/09/04 00:34:21;;;;;;;5.55;2.72;;;;;;;16.43;100.00;94752.84;4994688;28;20633;-75
2023/09/04 00:36:47;;;;;;;4.75;2.55;;;;;;;16.43;100.00;94742.72;4993928;28;20264;-74
2023/09/04 00:39:16;;;;;;;4.32;2.55;;;;;;;16.35;100.00;94736.31;4994390;28;20202;-74
2023/09/04 00:41:45;;;;;;;3.83;2.25;;;;;;;16.37;100.00;94718.78;4993985;28;20264;-74
2023/09/04 00:44:11;;;;;;;7.93;2.50;;;;;;;16.22;100.00;94704.03;4994342;28;20747;-74
2023/09/04 00:46:39;;;;;;;6.07;2.58;;;;;;;16.20;100.00;94712.59;4994009;28;20206;-74
2023/09/04 00:49:06;;;;;;;5.13;3.22;;;;;;;16.22;100.00;94707.56;4994146;28;20283;-74
2023/09/04 00:51:33;;;;;;;4.07;2.60;;;;;;;16.29;100.00;94702.22;4993378;28;20220;-74
2023/09/04 00:54:00;;;;;;;4.95;2.90;;;;;;;16.25;100.00;94698.66;4993314;28;20489;-74
2023/09/04 00:56:27;;;;;;;6.85;2.72;;;;;;;16.22;100.00;94693.09;4994563;28;20569;-74
2023/09/04 00:58:55;;;;;;;5.35;2.42;;;;;;;16.18;100.00;94697.72;4994389;28;20622;-74
2023/09/04 01:01:22;;;;;;;6.00;2.88;;;;;;;16.25;100.00;94676.78;4993867;28;20202;-74
2023/09/04 01:03:49;;;;;;;3.97;2.58;;;;;;;16.37;100.00;94677.75;4994133;28;20297;-75
2023/09/04 01:06:16;;;;;;;4.00;2.60;;;;;;;16.42;100.00;94674.72;4994096;28;20209;-74
2023/09/04 01:08:43;;;;;;;2.95;2.58;;;;;;;16.50;100.00;94679.97;4994467;28;20554;-74
2023/09/04 01:11:16;;;;;;;3.85;2.85;;;;;;;16.51;100.00;94683.50;4994238;28;20563;-74
2023/09/04 01:13:47;;;;;;;3.97;2.47;;;;;;;16.44;100.00;94683.34;4994211;28;20256;-74
2023/09/04 01:16:17;;;;;;;8.85;2.70;;;;;;;16.42;100.00;94675.50;4993560;28;20245;-74
2023/09/04 01:18:44;;;;;;;4.38;2.40;;;;;;;16.48;100.00;94667.81;4994193;28;20264;-75
2023/09/04 01:21:12;;;;;;;4.78;2.58;;;;;;;16.48;100.00;94667.81;4993557;28;20305;-74
2023/09/04 01:23:39;;;;;;;4.05;2.67;;;;;;;16.54;100.00;94669.84;4994095;28;20209;-74
2023/09/04 01:26:15;;;;;;;7.15;2.83;;;;;;;16.51;100.00;94667.09;4993821;28;20214;-74
2023/09/04 01:28:50;;;;;;;4.43;2.38;;;;;;;16.50;100.00;94657.28;4993956;28;20189;-74
2023/09/04 01:31:23;;;;;;;3.95;2.42;;;;;;;16.54;100.00;94656.19;4993404;28;20189;-74
2023/09/04 01:33:56;;;;;;;5.97;2.92;;;;;;;16.47;100.00;94647.09;4993693;28;20635;-75
2023/09/04 01:36:29;;;;;;;2.65;2.42;;;;;;;16.46;100.00;94656.44;4993475;28;20190;-75
2023/09/04 01:38:57;;;;;;;3.83;2.80;;;;;;;16.39;100.00;94648.13;4993572;28;20186;-75
2023/09/04 01:41:24;;;;;;;5.13;2.75;;;;;;;16.44;100.00;94640.38;4993707;28;20275;-74
2023/09/04 01:43:51;;;;;;;5.50;3.28;;;;;;;16.35;100.00;94654.31;4993398;28;20206;-75
2023/09/04 01:46:18;;;;;;;4.63;3.20;;;;;;;16.41;100.00;94646.56;4993562;28;20546;-74
2023/09/04 01:48:45;;;;;;;4.47;2.88;;;;;;;16.45;100.00;94639.22;4993081;28;20217;-75
2023/09/04 01:51:11;;;;;;;3.45;2.70;;;;;;;16.47;100.00;94644.34;4993108;28;20319;-74
2023/09/04 01:53:40;;;;;;;4.38;2.72;;;;;;;16.43;100.00;94643.47;4993069;28;20210;-75
2023/09/04 01:56:07;;;;;;;3.25;2.65;;;;;;;16.50;100.00;94649.09;4992848;28;20245;-74
2023/09/04 01:58:33;;;;;;;4.57;2.97;;;;;;;16.65;100.00;94653.69;4993274;28;20202;-74
2023/09/04 02:01:00;;;;;;;3.33;3.00;;;;;;;16.56;100.00;94658.56;4992857;28;20252;-74
2023/09/04 02:03:27;;;;;;;3.53;2.90;;;;;;;16.61;100.00;94655.53;4992631;28;20213;-76
2023/09/04 02:05:54;;;;;;;3.67;2.70;;;;;;;16.66;100.00;94647.06;4992565;28;20220;-76
2023/09/04 02:08:21;;;;;;;3.83;2.92;;;;;;;16.64;100.00;94661.09;4992886;28;20209;-74
2023/09/04 02:10:50;;;;;;;4.38;2.88;;;;;;;16.56;100.00;94658.56;4992576;28;20268;-75
2023/09/04 02:13:17;;;;;;;3.40;2.60;;;;;;;16.63;100.00;94664.19;4992884;28;20560;-74
2023/09/04 02:15:44;;;;;;;4.22;2.72;;;;;;;16.45;100.00;94654.84;4992388;28;20233;-74
2023/09/04 02:18:10;;;;;;;3.22;2.90;;;;;;;16.62;100.00;94662.59;4992552;28;20197;-75
2023/09/04 02:20:37;;;;;;;3.53;2.85;;;;;;;16.69;100.00;94651.78;4992794;28;20571;-74
2023/09/04 02:23:04;;;;;;;5.60;2.67;;;;;;;16.72;99.39;94667.47;4992431;28;20268;-76
2023/09/04 02:25:32;;;;;;;3.22;2.45;;;;;;;16.77;98.69;94653.50;4992664;28;20556;-76
2023/09/04 02:28:00;;;;;;;3.92;2.75;;;;;;;16.57;97.45;94655.47;4992259;28;20247;-74
2023/09/04 02:30:27;;;;;;;4.03;2.65;;;;;;;16.66;97.90;94656.06;4992347;28;20561;-76
2023/09/04 02:32:58;;;;;;;4.97;3.10;;;;;;;16.74;97.79;94648.75;4992280;28;20218;-76
2023/09/04 02:35:25;;;;;;;4.80;2.97;;;;;;;16.76;98.85;94642.91;4992482;28;20635;-76
2023/09/04 02:37:52;;;;;;;2.72;2.25;;;;;;;16.72;98.35;94634.63;4991840;28;20256;-76
2023/09/04 02:40:19;;;;;;;3.47;2.70;;;;;;;16.63;97.70;94634.91;4992551;28;20262;-76
2023/09/04 02:42:45;;;;;;;4.38;3.15;;;;;;;16.55;96.13;94646.03;4992481;28;20213;-76
2023/09/04 02:45:14;;;;;;;3.47;2.70;;;;;;;16.34;96.19;94636.31;4992398;28;20210;-75
2023/09/04 02:47:41;;;;;;;3.38;2.47;;;;;;;16.37;94.67;94644.97;4992364;28;20349;-75
2023/09/04 02:50:08;;;;;;;4.75;2.67;;;;;;;16.39;94.68;94631.72;4991931;28;20228;-76
2023/09/04 02:52:35;;;;;;;3.28;2.55;;;;;;;16.43;96.10;94632.53;4992184;28;20205;-75
2023/09/04 02:55:02;;;;;;;3.22;2.35;;;;;;;16.29;95.32;94633.88;4991773;28;20205;-75
2023/09/04 02:57:31;;;;;;;5.43;2.30;;;;;;;16.21;94.10;94632.19;4991959;28;20214;-75
2023/09/04 02:59:58;;;;;;;3.25;2.38;;;;;;;16.22;93.85;94633.75;4991846;28;20220;-75
2023/09/04 03:02:26;;;;;;;3.15;2.40;;;;;;;16.22;93.49;94628.28;4991827;28;20256;-76
2023/09/04 03:04:54;;;;;;;3.72;2.50;;;;;;;16.26;93.53;94637.34;4991859;28;20206;-75
2023/09/04 03:07:22;;;;;;;3.90;2.03;;;;;;;16.23;91.13;94638.09;4992071;28;20205;-74
2023/09/04 03:09:55;;;;;;;1.95;1.60;;;;;;;16.20;91.38;94632.53;4991561;28;20320;-75
2023/09/04 03:12:22;;;;;;;4.90;1.90;;;;;;;16.13;90.64;94627.72;4992081;28;20273;-74
2023/09/04 03:14:52;;;;;;;2.10;1.60;;;;;;;16.12;87.83;94622.66;4991584;28;20209;-75
2023/09/04 03:17:19;;;;;;;2.78;1.85;;;;;;;16.06;88.47;94635.81;4991459;28;20253;-75
2023/09/04 03:19:47;;;;;;;1.95;1.60;;;;;;;16.07;88.74;94620.19;4991763;28;20212;-74
2023/09/04 03:22:14;;;;;;;3.25;2.17;;;;;;;16.00;89.90;94620.84;4991556;28;20566;-74
2023/09/04 03:24:40;;;;;;;2.60;2.30;;;;;;;15.97;89.78;94618.84;4991954;28;20733;-74
2023/09/04 03:27:07;;;;;;;4.68;2.70;;;;;;;15.96;89.84;94614.53;4991574;28;20202;-74
2023/09/04 03:29:34;;;;;;;3.28;2.80;;;;;;;15.90;91.30;94624.16;4991384;28;20401;-75
2023/09/04 03:32:01;;;;;;;2.70;2.45;;;;;;;15.95;89.65;94618.41;4991420;28;20205;-73
2023/09/04 03:34:29;;;;;;;4.50;2.88;;;;;;;16.02;89.50;94625.94;4991792;28;20205;-73
2023/09/04 03:36:57;;;;;;;2.67;1.90;;;;;;;15.99;89.87;94624.72;4991235;28;20248;-74
2023/09/04 03:39:24;;;;;;;2.60;2.00;;;;;;;15.96;90.41;94630.94;4991578;28;20285;-74
2023/09/04 03:41:51;;;;;;;3.95;1.95;;;;;;;15.96;90.16;94630.94;4991488;28;20202;-75
2023/09/04 03:44:18;;;;;;;1.67;1.58;;;;;;;16.01;89.38;94633.34;4991835;28;20619;-74
2023/09/04 03:46:45;;;;;;;2.40;1.60;;;;;;;15.91;89.97;94628.47;4991631;28;20567;-74
2023/09/04 03:49:12;;;;;;;3.28;2.17;;;;;;;15.89;89.91;94630.78;4991085;28;20216;-74
2023/09/04 03:51:39;;;;;;;2.22;1.83;;;;;;;15.89;90.78;94638.97;4991201;28;20229;-74
2023/09/04 03:54:07;;;;;;;2.97;1.88;;;;;;;15.86;90.01;94634.22;4991093;28;20221;-73
2023/09/04 03:56:34;;;;;;;3.25;1.92;;;;;;;15.87;89.18;94635.81;4991535;28;20209;-74
2023/09/04 03:59:01;;;;;;;3.03;1.90;;;;;;;15.84;89.31;94634.63;4991048;28;20241;-73
2023/09/04 04:01:31;;;;;;;2.97;2.22;;;;;;;15.81;90.78;94634.53;4991091;28;20291;-74
2023/09/04 04:03:59;;;;;;;3.35;2.70;;;;;;;15.77;91.70;94639.13;4991176;28;20209;-74
2023/09/04 04:06:25;;;;;;;3.33;2.63;;;;;;;15.70;92.70;94633.53;4991237;28;20220;-73
2023/09/04 04:08:54;;;;;;;2.78;2.40;;;;;;;15.70;92.49;94644.47;4991237;28;20574;-75
2023/09/04 04:11:22;;;;;;;4.47;3.80;;;;;;;15.75;92.66;94635.97;4991159;28;20284;-75
2023/09/04 04:13:49;;;;;;;4.00;3.60;;;;;;;15.68;93.51;94641.28;4991486;28;20233;-75
2023/09/04 04:16:16;;;;;;;4.72;3.95;;;;;;;15.74;93.29;94634.38;4990758;28;20340;-73
2023/09/04 04:18:43;;;;;;;4.35;3.90;;;;;;;15.69;93.73;94638.22;4991413;28;20618;-73
2023/09/04 04:21:10;;;;;;;4.28;3.88;;;;;;;15.67;93.21;94636.97;4990782;28;20198;-73
2023/09/04 04:23:37;;;;;;;4.32;3.80;;;;;;;15.64;93.95;94639.28;4991398;28;20574;-73
2023/09/04 04:26:04;;;;;;;5.57;4.07;;;;;;;15.70;93.23;94641.72;4990668;28;20260;-74
2023/09/04 04:28:32;;;;;;;6.05;4.22;;;;;;;15.73;93.38;94639.06;4994672;28;20244;-73
2023/09/04 04:31:02;;;;;;;3.60;2.53;;;;;;;15.72;91.95;94636.69;4994555;28;20316;-74
2023/09/04 04:33:28;;;;;;;3.67;2.63;;;;;;;15.75;92.37;94641.44;4994965;28;20241;-74
2023/09/04 04:35:55;;;;;;;1.35;1.25;;;;;;;15.73;90.77;94636.31;4994201;28;20213;-73
2023/09/04 04:38:22;;;;;;;2.35;1.85;;;;;;;15.72;90.28;94636.69;4994843;28;20586;-73
2023/09/04 04:40:49;;;;;;;2.92;2.08;;;;;;;15.79;90.53;94629.44;4994197;28;20276;-74
2023/09/04 04:43:16;;;;;;;3.97;1.83;;;;;;;15.70;90.73;94631.59;4994538;28;20214;-74
2023/09/04 04:45:44;;;;;;;4.35;2.78;;;;;;;15.74;90.92;94635.16;4994524;28;20618;-73
2023/09/04 04:48:10;;;;;;;2.80;2.30;;;;;;;15.82;90.64;94630.66;4994278;28;20205;-76
2023/09/04 04:50:37;;;;;;;2.70;2.00;;;;;;;15.73;90.58;94625.41;4994592;28;20304;-76
2023/09/04 04:53:04;;;;;;;2.00;1.80;;;;;;;15.78;89.75;94636.03;4994618;28;20550;-75
2023/09/04 04:55:31;;;;;;;1.50;1.23;;;;;;;15.80;89.00;94635.69;4994617;28;20597;-75
2023/09/04 04:57:58;;;;;;;2.65;1.45;;;;;;;15.71;88.81;94637.84;4994167;28;20210;-72
2023/09/04 05:00:24;;;;;;;3.97;1.27;;;;;;;15.61;88.60;94637.25;4994298;28;20232;-75
2023/09/04 05:02:53;;;;;;;2.38;1.40;;;;;;;15.66;89.38;94633.47;4994175;28;20201;-73
2023/09/04 05:05:19;;;;;;;1.30;0.98;;;;;;;15.64;88.41;94631.09;4994134;28;20214;-75
2023/09/04 05:07:46;;;;;;;1.73;1.30;;;;;;;15.58;88.09;94637.97;4994071;28;20577;-73
2023/09/04 05:10:13;;;;;;;2.50;1.70;;;;;;;15.74;88.76;94639.84;4993715;28;20217;-74
2023/09/04 05:12:40;;;;;;;1.23;1.10;;;;;;;15.75;86.74;94642.22;4993693;28;20230;-74
2023/09/04 05:15:07;;;;;;;1.27;1.17;;;;;;;15.69;86.78;94634.69;4993951;28;20604;-73
2023/09/04 05:17:34;;;;;;;2.75;2.40;;;;;;;15.69;86.59;94640.16;4993815;28;20233;-74
2023/09/04 05:20:03;;;;;;;2.03;1.60;;;;;;;15.72;86.24;94633.94;4993694;28;20209;-73
2023/09/04 05:22:31;;;;;;;1.10;0.98;;;;;;;15.73;85.40;94622.66;4993986;28;20632;-73
2023/09/04 05:24:58;;;;;;;1.70;1.27;;;;;;;15.75;84.85;94630.50;4993500;28;20309;-73
2023/09/04 05:27:25;;;;;;;2.25;1.65;;;;;;;15.80;85.55;94628.28;4993838;28;20217;-73
2023/09/04 05:29:54;;;;;;;2.45;1.65;;;;;;;15.92;85.42;94621.88;4993897;28;20351;-73
2023/09/04 05:32:21;;;;;;;1.60;1.30;;;;;;;15.86;85.31;94626.03;4993806;28;20296;-73
2023/09/04 05:34:52;;;;;;;2.03;1.40;;;;;;;15.75;84.93;94619.56;4993561;28;20214;-72
2023/09/04 05:37:20;;;;;;;1.90;1.50;;;;;;;15.72;85.58;94620.28;4993107;28;20260;-73
2023/09/04 05:39:47;;;;;;;2.42;1.25;;;;;;;15.77;85.00;94620.00;4992573;28;20214;-73
2023/09/04 05:42:14;;;;;;;2.83;1.80;;;;;;;15.66;84.54;94619.00;4993347;28;20209;-74
2023/09/04 05:44:40;;;;;;;2.47;1.80;;;;;;;15.77;84.57;94617.28;4993582;28;20210;-73
2023/09/04 05:47:07;;;;;;;2.28;1.70;;;;;;;15.69;83.45;94610.91;4993371;28;20260;-73
2023/09/04 05:49:34;;;;;;;1.95;1.83;;;;;;;15.75;83.91;94619.56;4993533;28;20686;-73
2023/09/04 05:52:01;;;;;;;3.25;2.40;;;;;;;15.82;82.95;94608.81;4993275;28;20670;-74
2023/09/04 05:54:29;;;;;;;2.45;1.50;;;;;;;15.76;82.84;94615.69;4993240;28;20206;-74
2023/09/04 05:56:56;;;;;;;2.47;1.70;;;;;;;15.73;82.38;94606.28;4993104;28;20221;-75
2023/09/04 05:59:23;;;;;;;2.55;2.10;;;;;;;15.84;82.69;94611.97;4993295;28;20256;-74
2023/09/04 06:01:50;;;;;;;3.03;2.15;;;;;;;15.84;81.34;94609.22;4993156;28;20272;-73
2023/09/04 06:04:16;;;;;;;1.67;1.50;;;;;;;15.81;81.61;94604.50;4993540;28;20559;-74
2023/09/04 06:06:43;;;;;;;2.38;1.90;;;;;;;15.83;81.94;94613.13;4993378;28;20248;-75
2023/09/04 06:09:10;;;;;;;4.13;2.25;;;;;;;15.73;81.46;94610.94;4993281;28;20726;-75
2023/09/04 06:11:38;;;;;;;2.95;2.15;;;;;;;15.85;81.71;94603.38;4992899;28;20288;-74
2023/09/04 06:14:05;;;;;;;2.53;1.80;;;;;;;15.82;81.28;94608.81;4992875;28;20638;-75
2023/09/04 06:16:32;;;;;;;2.00;1.77;;;;;;;15.81;81.30;94608.00;4992710;28;20587;-75
2023/09/04 06:18:59;;;;;;;2.47;2.00;;;;;;;15.87;81.72;94605.75;4992512;28;20296;-73
2023/09/04 06:21:26;;;;;;;2.42;2.03;;;;;;;15.88;81.43;94610.88;4992743;28;20210;-75
2023/09/04 06:23:53;;;;;;;4.60;2.40;;;;;;;15.96;81.34;94614.53;4992911;28;20206;-76
2023/09/04 06:26:20;;;;;;;4.43;2.35;;;;;;;15.91;80.77;94612.09;4992532;28;20675;-75
2023/09/04 06:28:48;;;;;;;2.78;2.35;;;;;;;16.04;80.79;94620.91;4992610;28;20205;-75
2023/09/04 06:31:15;;;;;;;2.33;2.10;;;;;;;16.04;80.37;94615.44;4992587;28;20648;-75
2023/09/04 06:33:43;;;;;;;5.97;2.20;;;;;;;15.99;80.36;94624.72;4992909;28;20280;-75
2023/09/04 06:36:10;;;;;;;3.70;2.10;;;;;;;16.14;80.13;94621.09;4992483;28;20650;-76
2023/09/04 06:38:37;;;;;;;4.15;2.40;;;;;;;16.21;78.77;94621.25;4992600;28;20212;-74
2023/09/04 06:41:04;;;;;;;3.55;2.42;;;;;;;16.07;79.63;94629.19;4992002;28;20210;-75
2023/09/04 06:43:31;;;;;;;2.92;2.25;;;;;;;16.29;78.79;94624.88;4992455;28;20213;-75
2023/09/04 06:46:01;;;;;;;2.13;1.75;;;;;;;16.18;79.00;94621.97;4992359;28;20209;-75
2023/09/04 06:48:28;;;;;;;3.10;2.42;;;;;;;16.28;79.18;94632.28;4992489;28;20264;-73
2023/09/04 06:50:55;;;;;;;2.08;1.42;;;;;;;16.21;78.35;94632.19;4991916;28;20229;-72
2023/09/04 06:53:23;;;;;;;3.97;2.30;;;;;;;16.20;78.53;94627.06;4992278;28;20213;-73
2023/09/04 06:55:51;;;;;;;1.55;1.42;;;;;;;16.13;78.26;94630.44;4991966;28;20213;-73
2023/09/04 06:58:18;;;;;;;3.95;2.83;;;;;;;16.10;78.17;94625.75;4991807;28;20209;-74
2023/09/04 07:00:45;;;;;;;3.03;2.15;;;;;;;16.10;78.79;94625.75;4991875;28;20197;-74
2023/09/04 07:03:13;;;;;;;2.70;2.08;;;;;;;16.19;78.65;94631.75;4992015;28;20607;-74
2023/09/04 07:05:41;;;;;;;1.15;1.05;;;;;;;16.03;78.29;94631.06;4991948;28;20217;-73
2023/09/04 07:08:08;;;;;;;4.07;2.80;;;;;;;16.12;78.61;94634.38;4991610;28;20252;-74
2023/09/04 07:10:35;;;;;;;2.85;2.55;;;;;;;16.24;78.49;94636.94;4991894;28;20272;-73
2023/09/04 07:13:02;;;;;;;3.55;2.10;;;;;;;16.31;77.95;94639.78;4991691;28;20300;-75
2023/09/04 07:15:29;;;;;;;3.58;2.42;;;;;;;16.46;77.58;94645.50;4991991;28;20212;-75
2023/09/04 07:17:58;;;;;;;3.10;2.60;;;;;;;16.47;77.43;94649.81;4991702;28;20198;-73
2023/09/04 07:20:26;;;;;;;6.80;2.60;;;;;;;16.31;77.51;94647.97;4991882;28;20202;-73
2023/09/04 07:22:53;;;;;;;2.72;1.75;;;;;;;16.33;77.00;94651.16;4991817;28;20678;-73
2023/09/04 07:25:20;;;;;;;1.65;1.50;;;;;;;16.14;77.92;94653.91;4991463;28;20224;-73
2023/09/04 07:27:47;;;;;;;1.10;1.00;;;;;;;16.11;78.98;94660.13;4991941;28;20206;-73
2023/09/04 07:30:14;;;;;;;3.38;2.75;;;;;;;16.30;78.78;94662.00;4991527;28;20614;-74
2023/09/04 07:32:40;;;;;;;2.80;2.30;;;;;;;16.22;78.82;94655.63;4991320;28;20257;-73
2023/09/04 07:35:08;;;;;;;5.40;2.67;;;;;;;16.31;78.73;94658.13;4991428;28;20576;-74
2023/09/04 07:37:36;;;;;;;2.92;1.83;;;;;;;16.31;78.53;94661.66;4991349;28;20228;-73
2023/09/04 07:40:05;;;;;;;2.55;2.35;;;;;;;16.32;78.01;94649.56;4991436;28;20625;-73
2023/09/04 07:42:32;;;;;;;2.63;2.20;;;;;;;16.49;77.44;94648.31;4991302;28;20356;-73
2023/09/04 07:44:59;;;;;;;3.08;1.98;;;;;;;16.61;76.93;94650.06;4991731;28;20209;-74
2023/09/04 07:47:25;;;;;;;3.65;2.70;;;;;;;16.66;77.97;94647.06;4991308;28;20729;-73
2023/09/04 07:49:53;;;;;;;4.20;3.03;;;;;;;16.75;77.73;94644.06;4991345;28;20210;-74
2023/09/04 07:52:21;;;;;;;3.20;2.58;;;;;;;16.95;76.46;94642.81;4991020;28;20256;-74
2023/09/04 07:54:50;;;;;;;3.53;2.58;;;;;;;16.95;74.14;94635.38;4991812;28;20264;-76
2023/09/04 07:57:17;;;;;;;3.60;2.80;;;;;;;17.09;74.74;94637.56;4991316;28;20221;-76
2023/09/04 07:59:44;;;;;;;11.73;2.40;;;;;;;17.28;74.25;94639.41;4991630;28;20610;-76
2023/09/04 08:02:11;;;;;;;4.88;2.72;;;;;;;17.44;73.78;94645.50;4992721;28;20201;-75
2023/09/04 08:04:38;;;;;;;5.10;2.38;;;;;;;17.33;74.06;94639.09;4995460;28;20209;-75
2023/09/04 08:07:05;;;;;;;4.47;2.60;;;;;;;17.25;74.23;94649.13;4994805;28;20605;-76
2023/09/04 08:09:31;;;;;;;3.20;2.00;;;;;;;16.93;74.48;94643.19;4995202;28;20248;-75
2023/09/04 08:12:00;;;;;;;5.47;2.95;;;;;;;17.17;74.85;94643.94;4995232;28;20306;-76
2023/09/04 08:14:26;;;;;;;5.43;3.00;;;;;;;17.67;73.10;94646.22;4994964;28;20226;-75
2023/09/04 08:16:53;;;;;;;2.83;2.47;;;;;;;17.75;72.87;94642.44;4994686;28;20241;-75
2023/09/04 08:19:20;;;;;;;4.90;2.90;;;;;;;18.13;71.55;94646.00;4994855;28;20206;-76
2023/09/04 08:21:47;;;;;;;4.05;2.92;;;;;;;18.22;71.37;94649.22;4994932;28;20209;-76
2023/09/04 08:24:13;;;;;;;3.60;2.83;;;;;;;18.00;71.35;94652.91;4994831;28;20264;-75
2023/09/04 08:26:40;;;;;;;3.13;2.40;;;;;;;17.68;72.80;94652.50;4995116;28;20224;-77
2023/09/04 08:29:08;;;;;;;5.03;3.22;;;;;;;17.41;73.39;94643.50;4994837;28;20268;-75
2023/09/04 08:31:35;;;;;;;4.88;2.78;;;;;;;17.30;73.57;94648.84;4995059;28;20246;-75
2023/09/04 08:34:03;;;;;;;3.30;2.63;;;;;;;17.58;73.00;94637.47;4994894;28;20205;-75
2023/09/04 08:36:30;;;;;;;2.95;2.63;;;;;;;17.51;73.19;94645.59;4994661;28;20205;-75
2023/09/04 08:38:57;;;;;;;6.97;2.88;;;;;;;17.27;74.34;94640.56;4994496;28;20297;-74
2023/09/04 08:41:27;;;;;;;3.38;2.22;;;;;;;17.20;74.02;94646.75;4994476;28;20265;-75
2023/09/04 08:43:54;;;;;;;5.43;2.67;;;;;;;17.58;73.54;94642.97;4994893;28;20663;-74
2023/09/04 08:46:23;;;;;;;3.50;2.65;;;;;;;17.41;73.44;94643.50;4994453;28;20238;-74
2023/09/04 08:48:52;;;;;;;3.97;3.20;;;;;;;17.59;73.48;94630.84;4994735;28;21000;-75
2023/09/04 08:51:19;;;;;;;4.95;3.17;;;;;;;17.83;72.83;94637.03;4994059;28;20309;-75
2023/09/04 08:53:49;;;;;;;3.00;2.42;;;;;;;17.93;72.00;94636.34;4994825;28;20267;-75
2023/09/04 08:56:16;;;;;;;4.15;2.67;;;;;;;17.67;73.21;94640.75;4994190;28;20220;-74
2023/09/04 08:58:43;;;;;;;3.80;2.80;;;;;;;17.49;72.79;94642.44;4994414;28;20613;-73
2023/09/04 09:01:12;;;;;;;4.82;2.65;;;;;;;17.60;72.47;94654.34;4993718;28;20205;-74
2023/09/04 09:03:42;;;;;;;4.32;2.65;;;;;;;17.33;72.66;94658.25;4994424;28;20664;-75
2023/09/04 09:06:09;;;;;;;4.53;3.10;;;;;;;17.13;73.90;94659.50;4993892;28;20202;-76
2023/09/04 09:08:37;;;;;;;4.00;3.30;;;;;;;17.18;73.74;94657.25;4994582;28;20268;-74
2023/09/04 09:11:04;;;;;;;4.88;3.45;;;;;;;17.30;73.78;94659.00;4994422;28;20217;-75
2023/09/04 09:13:31;;;;;;;2.95;2.03;;;;;;;17.17;73.74;94654.88;4993071;28;20256;-74
2023/09/04 09:15:58;;;;;;;3.47;2.08;;;;;;;16.89;73.75;94666.19;4994162;28;20653;-74
2023/09/04 09:18:38;;;;;;;4.72;3.17;;;;;;;16.99;73.96;94649.13;4993927;28;20707;-74
2023/09/04 09:21:30;;;;;;;4.30;3.13;;;;;;;17.10;74.30;94662.97;4993737;28;20201;-75
2023/09/04 09:24:16;;;;;;;3.88;3.00;;;;;;;16.91;74.91;94658.41;4993853;28;20249;-73
2023/09/04 09:26:45;;;;;;;5.57;3.33;;;;;;;17.19;74.88;94658.84;4994284;28;20212;-73
2023/09/04 09:29:13;;;;;;;4.85;3.30;;;;;;;17.40;73.73;94663.81;4993624;28;20209;-73
2023/09/04 09:31:42;;;;;;;10.52;3.22;;;;;;;17.52;73.36;94666.34;4993960;28;20554;-73
2023/09/04 09:34:10;;;;;;;3.60;2.67;;;;;;;17.33;74.30;94661.00;4993774;28;20241;-73
2023/09/04 09:36:39;;;;;;;3.60;2.88;;;;;;;17.10;75.15;94661.03;4993732;28;20214;-73
2023/09/04 09:39:06;;;;;;;4.35;3.33;;;;;;;17.18;74.71;94657.25;4993244;28;20209;-76
2023/09/04 09:41:34;;;;;;;4.30;2.90;;;;;;;17.10;74.40;94660.25;4993839;28;20205;-73
2023/09/04 09:44:03;;;;;;;3.70;2.78;;;;;;;17.07;74.77;94656.31;4993784;28;20206;-72
2023/09/04 09:46:31;;;;;;;4.88;3.30;;;;;;;17.29;75.07;94651.94;4993595;28;20206;-73
2023/09/04 09:48:59;;;;;;;3.90;2.85;;;;;;;17.36;74.47;94661.03;4993214;28;20210;-73
2023/09/04 09:51:28;;;;;;;4.07;3.13;;;;;;;17.60;74.07;94662.56;4993070;28;20218;-74
2023/09/04 09:53:57;;;;;;;5.35;3.83;;;;;;;17.75;73.56;94652.59;4993449;28;20257;-74
2023/09/04 09:56:24;;;;;;;5.75;3.65;;;;;;;17.75;73.88;94658.09;4993596;28;20209;-73
2023/09/04 09:58:51;;;;;;;2.80;1.75;;;;;;;17.28;73.80;94655.81;4993250;28;20351;-73
2023/09/04 10:01:19;;;;;;;2.75;1.98;;;;;;;17.14;74.88;94658.34;4992993;28;20741;-72
2023/09/04 10:03:47;;;;;;;5.15;3.50;;;;;;;17.08;75.97;94654.38;4992791;28;20202;-73
2023/09/04 10:06:22;;;;;;;8.98;3.40;;;;;;;17.10;76.07;94654.78;4993245;28;20569;-74
2023/09/04 10:08:51;;;;;;;6.90;2.88;;;;;;;17.30;75.53;94659.00;4992778;28;20221;-72
2023/09/04 10:11:26;;;;;;;7.30;3.33;;;;;;;17.35;75.00;94653.22;4992842;28;20225;-72
2023/09/04 10:14:00;;;;;;;8.18;4.65;;;;;;;17.35;76.68;94655.94;4992773;28;20232;-75
2023/09/04 10:16:33;;;;;;;5.35;3.80;;;;;;;17.27;77.61;94652.31;4992797;28;20237;-73
2023/09/04 10:19:03;;;;;;;8.07;4.15;;;;;;;17.07;78.59;94655.53;4992587;28;20193;-72
2023/09/04 10:21:34;;;;;;;8.35;4.05;;;;;;;17.15;79.04;94654.47;4992687;28;20209;-72
2023/09/04 10:24:03;;;;;;;6.70;4.53;;;;;;;16.72;81.22;94656.53;4992690;28;20194;-73
2023/09/04 10:26:41;;;;;;;6.95;4.55;;;;;;;16.58;83.51;94650.78;4992686;28;20209;-72
2023/09/04 10:29:11;;;;;;;8.32;4.22;;;;;;;16.34;85.16;94658.19;4992698;28;20737;-74
2023/09/04 10:31:39;;;;;;;3.30;2.78;;;;;;;16.02;85.72;94661.47;4993209;28;20583;-73
2023/09/04 10:34:06;;;;;;;6.43;4.65;;;;;;;16.20;88.40;94662.59;4992104;28;20249;-71
2023/09/04 10:36:33;;;;;;;8.32;5.03;;;;;;;16.23;90.82;94657.22;4992284;28;20593;-72
2023/09/04 10:39:01;;;;;;;6.60;4.43;;;;;;;16.06;88.79;94665.84;4992380;28;20622;-73
2023/09/04 10:41:29;;;;;;;7.15;5.20;;;;;;;16.05;91.55;94667.00;4991950;28;20218;-73
2023/09/04 10:43:57;;;;;;;12.95;5.28;;;;;;;16.02;92.89;94672.41;4992244;28;20210;-71
2023/09/04 10:46:24;;;;;;;12.90;5.75;;;;;;;15.78;94.27;94670.75;4992003;28;20260;-71
2023/09/04 10:48:53;;;;;;;8.30;5.45;;;;;;;15.62;93.85;94668.09;4992172;28;20213;-72
2023/09/04 10:51:30;;;;;;;5.22;3.83;;;;;;;15.51;93.14;94677.97;4992117;28;20555;-72
2023/09/04 10:53:57;;;;;;;13.77;6.00;;;;;;;15.58;95.77;94676.19;4992201;28;20214;-72
2023/09/04 10:56:24;;;;;;;10.40;5.57;;;;;;;15.75;95.29;94679.66;4992298;28;20271;-72
2023/09/04 10:59:06;;;;;;;8.23;5.47;;;;;;;15.81;95.56;94679.03;4992256;28;20213;-72
2023/09/04 11:01:35;;;;;;;11.07;5.30;;;;;;;15.93;97.46;94675.38;4991839;28;20248;-72
2023/09/04 11:04:03;;;;;;;9.63;5.20;;;;;;;15.96;96.99;94680.13;4991968;28;20260;-73
2023/09/04 11:06:30;;;;;;;8.35;4.57;;;;;;;15.72;96.84;94669.44;4991686;28;20300;-72
2023/09/04 11:08:56;;;;;;;6.88;4.45;;;;;;;15.61;97.55;94678.22;4992101;28;20198;-73
2023/09/04 11:11:27;;;;;;;6.47;4.20;;;;;;;15.63;96.71;94678.66;4991598;28;20209;-73
2023/09/04 11:14:01;;;;;;;7.45;4.68;;;;;;;15.74;97.62;94678.88;4991610;28;20236;-73
2023/09/04 11:16:33;;;;;;;7.32;4.40;;;;;;;15.82;97.28;94679.81;4991417;28;20241;-72
2023/09/04 11:19:06;;;;;;;7.70;5.20;;;;;;;15.88;99.12;94683.84;4991539;28;20281;-72
2023/09/04 11:21:34;;;;;;;11.32;5.43;;;;;;;16.08;100.00;94674.50;4991811;28;20646;-72
2023/09/04 11:24:03;;;;;;;8.23;5.30;;;;;;;16.30;100.00;94683.88;4991744;28;20233;-72
2023/09/04 11:26:30;;;;;;;9.65;6.32;;;;;;;16.48;100.00;94674.06;4991579;28;20209;-72
2023/09/04 11:28:59;;;;;;;8.40;4.85;;;;;;;16.47;99.16;94677.16;4991781;28;20232;-73
2023/09/04 11:31:27;;;;;;;8.05;4.47;;;;;;;16.16;98.49;94676.19;4991494;28;20224;-72
2023/09/04 11:33:56;;;;;;;8.38;5.25;;;;;;;16.07;99.57;94678.38;4991714;28;20225;-73